KGGE

Details ICAO KGGE (GGE)
Name GEORGETOWN CO
Region United States
Timezone America/New_York (UTC-5.0)
Plans Departing 5
Arriving 9
Stats Elevation 39 ft / 12 m (AMSL)
Location 33.312050° -79.317148°
Runways 3
Magnetic Variation 8.412° W
Sunrise 2017-12-12 12:13:09 UTC / 2017-12-12 07:13:09 Local
Sunset 2017-12-12 22:11:54 UTC / 2017-12-12 17:11:54 Local
Advertisement - Login to hide

Runways

ID Width Length Bearing (true) Bearing (mag) Surface Threshold Offset Overrun Length
05 100 ft / 30 m 5,005 ft / 1,525 m 41.27° 49.68° Asphalt 0 ft / 0 m 0 ft / 0 m
11 150 ft / 46 m 4,531 ft / 1,381 m 101.48° 109.89° Asphalt 0 ft / 0 m 0 ft / 0 m
16 150 ft / 46 m 5,092 ft / 1,552 m 157.07° 165.48° Asphalt 0 ft / 0 m 0 ft / 0 m
23 100 ft / 30 m 5,005 ft / 1,525 m 221.27° 229.68° Asphalt 0 ft / 0 m 0 ft / 0 m
29 150 ft / 46 m 4,531 ft / 1,381 m 281.49° 289.90° Asphalt 0 ft / 0 m 0 ft / 0 m
34 150 ft / 46 m 5,092 ft / 1,552 m 337.08° 345.49° Asphalt 0 ft / 0 m 0 ft / 0 m

Map

Weather


0- 5 10 15 20 25 30 35+ Temperature / ° C

Clouds and Precipitation
Forecast for 2017-12-13 00:00 UTC. Updated 24 minutes ago

Ground ~20,000 ft ~40,000 ft Winds

METAR

KGGE 122335Z AUTO 24004KT 10SM CLR 08/03 A2975 RMK AO2 LTG DSNT E

TAF

Not found

Frequencies

Unicom 123.00 MHz CTAF/UNICOM
Approach 127.40 MHz MYRTLE BEACH APP/DEP
Clearance 119.70 MHz MYRTLE BEACH CLNC
Warning: Do not use this data for real-world aviation or navigation. No guarantee of current accuracy is given.